Terminal Aerodrome Forecast
Issued by NWS

Home | Current Version | Previous Version | Text Only | Print | Product List | Glossary On
Versions: 1 2 3 4 5 6 7 8 9 10 11 12 13 14
635
FTUS45 KVEF 250520
TAFVGT
TAF
KVGT 250520Z 2506/2606 20008KT P6SM FEW250
     FM250800 VRB05KT P6SM FEW250
     FM252100 21009G18KT P6SM FEW250
     FM260100 22010KT P6SM FEW250=

USA.gov is the U.S. government's official web portal to all federal, state and local government web resources and services.